Spirit Of New York — WCW9332 — position and weather

sailwx.info

Track history (hours):
 
Tides and Currents Weather Stations Pressure Air Temp Water Temp Dewpoint Dewpoint Depression Visibility Wind Speed Wind Dir Waves Ship Positions

Spirit Of New York

More information available from US FCC via Universal Licensing System and Coast Guard Vessel Documentation Center.

Last reported at 2014-Sep-02 23:32 UTC. Time now 2014-Sep-03 00:12 UTC.
Position N 40°43' W 074°01'.

Length 62 m.

Type: Passenger vessel. MMSI: 338897000.

Date/timePositionNaut miles runAvg speedWind from/ knotsBaromVisibWave heightAir tempDewpointWater temp
2014-Sep-02 23:32N 40°43' W 074°01'0 0.4
2014-Sep-02 22:33N 40°43' W 074°02'1 0.0
2014-Sep-01 23:33N 40°44' W 074°01'2 1.9
2014-Sep-01 22:33N 40°42' W 073°59'2 1.6
2014-Sep-01 21:33N 40°42' W 074°01'2 0.2
2014-Sep-01 06:32N 40°44' W 074°01'2 2.4
2014-Sep-01 05:34N 40°42' W 074°00'3 2.7
2014-Sep-01 04:33N 40°45' W 074°01'3 0.2
2014-Aug-31 17:20N 40°42' W 073°60'2 2.3
2014-Aug-31 16:32N 40°44' W 074°01'1 0.1
2014-Aug-31 01:33N 40°44' W 074°01'2 2.5
2014-Aug-31 00:33N 40°42' W 074°00'3 2.6
2014-Aug-30 23:24N 40°45' W 074°01'3 0.4
2014-Aug-30 17:33N 40°43' W 074°01'1 1.4
2014-Aug-30 16:31N 40°44' W 074°01'1 0.1
2014-Aug-30 06:33N 40°43' W 074°02'1 1.0
2014-Aug-30 05:33N 40°42' W 074°01'2 0.4
2014-Aug-30 01:33N 40°44' W 074°01'2 2.0
2014-Aug-30 00:33N 40°42' W 073°59'2 0.1
2014-Aug-29 01:33N 40°45' W 074°01'3 2.8
2014-Aug-29 00:34N 40°42' W 074°01'4 3.8
2014-Aug-28 23:29N 40°46' W 074°00'2 0.4
2014-Aug-28 17:34N 40°44' W 074°01'1 0.8
2014-Aug-28 16:34N 40°43' W 074°02'1 0.1
2014-Aug-28 01:33N 40°44' W 074°01'2 1.9
2014-Aug-28 00:33N 40°42' W 073°60'3 2.6
2014-Aug-27 23:33N 40°45' W 074°01'1 0.2
2014-Aug-27 17:32N 40°44' W 074°01'1 0.8
2014-Aug-27 16:33N 40°43' W 074°02'2 1.1
2014-Aug-27 14:31N 40°45' W 074°01'0 0.0
2014-Aug-27 02:12N 40°45' W 074°01'2 3.7
2014-Aug-27 01:33N 40°43' W 074°01'2 2.1
2014-Aug-27 00:33N 40°42' W 073°59'3 3.3
2014-Aug-26 23:33N 40°45' W 074°01'1 0.1
2014-Aug-26 18:12N 40°45' W 074°01'1 0.1
2014-Aug-25 17:33N 40°43' W 074°01'0 0.4
2014-Aug-25 16:33N 40°44' W 074°01'0 0.0
2014-Aug-25 01:32N 40°44' W 074°01'2 1.8
2014-Aug-25 00:33N 40°42' W 073°59'3 3.0
2014-Aug-24 23:28N 40°46' W 074°01'2 0.3
2014-Aug-24 17:33N 40°44' W 074°01'1 0.6
2014-Aug-24 16:33N 40°43' W 074°01'1 0.0
2014-Aug-24 02:32N 40°44' W 074°01'2 2.1
2014-Aug-24 01:33N 40°42' W 074°00'3 3.4
2014-Aug-24 00:33N 40°45' W 074°01'  
Track history (hours):
 
Tides and Currents Weather Stations Pressure Air Temp Water Temp Dewpoint Dewpoint Depression Visibility Wind Speed Wind Dir Waves Ship Positions

Spirit Of New York

More information available from US FCC via Universal Licensing System and Coast Guard Vessel Documentation Center.

Last reported at 2014-Sep-02 23:32 UTC. Time now 2014-Sep-03 00:12 UTC.
Position N 40°43' W 074°01'.

Length 62 m.

Type: Passenger vessel. MMSI: 338897000.

Date/timePositionNaut miles runAvg speedWind from/ knotsBaromVisibWave heightAir tempDewpointWater temp
2014-Sep-02 23:32N 40°43' W 074°01'0 0.4
2014-Sep-02 22:33N 40°43' W 074°02'1 0.0
2014-Sep-01 23:33N 40°44' W 074°01'2 1.9
2014-Sep-01 22:33N 40°42' W 073°59'2 1.6
2014-Sep-01 21:33N 40°42' W 074°01'2 0.2
2014-Sep-01 06:32N 40°44' W 074°01'2 2.4
2014-Sep-01 05:34N 40°42' W 074°00'3 2.7
2014-Sep-01 04:33N 40°45' W 074°01'3 0.2
2014-Aug-31 17:20N 40°42' W 073°60'2 2.3
2014-Aug-31 16:32N 40°44' W 074°01'1 0.1
2014-Aug-31 01:33N 40°44' W 074°01'2 2.5
2014-Aug-31 00:33N 40°42' W 074°00'3 2.6
2014-Aug-30 23:24N 40°45' W 074°01'3 0.4
2014-Aug-30 17:33N 40°43' W 074°01'1 1.4
2014-Aug-30 16:31N 40°44' W 074°01'1 0.1
2014-Aug-30 06:33N 40°43' W 074°02'1 1.0
2014-Aug-30 05:33N 40°42' W 074°01'2 0.4
2014-Aug-30 01:33N 40°44' W 074°01'2 2.0
2014-Aug-30 00:33N 40°42' W 073°59'2 0.1
2014-Aug-29 01:33N 40°45' W 074°01'3 2.8
2014-Aug-29 00:34N 40°42' W 074°01'4 3.8
2014-Aug-28 23:29N 40°46' W 074°00'2 0.4
2014-Aug-28 17:34N 40°44' W 074°01'1 0.8
2014-Aug-28 16:34N 40°43' W 074°02'1 0.1
2014-Aug-28 01:33N 40°44' W 074°01'2 1.9
2014-Aug-28 00:33N 40°42' W 073°60'3 2.6
2014-Aug-27 23:33N 40°45' W 074°01'1 0.2
2014-Aug-27 17:32N 40°44' W 074°01'1 0.8
2014-Aug-27 16:33N 40°43' W 074°02'2 1.1
2014-Aug-27 14:31N 40°45' W 074°01'0 0.0
2014-Aug-27 02:12N 40°45' W 074°01'2 3.7
2014-Aug-27 01:33N 40°43' W 074°01'2 2.1
2014-Aug-27 00:33N 40°42' W 073°59'3 3.3
2014-Aug-26 23:33N 40°45' W 074°01'1 0.1
2014-Aug-26 18:12N 40°45' W 074°01'1 0.1
2014-Aug-25 17:33N 40°43' W 074°01'0 0.4
2014-Aug-25 16:33N 40°44' W 074°01'0 0.0
2014-Aug-25 01:32N 40°44' W 074°01'2 1.8
2014-Aug-25 00:33N 40°42' W 073°59'3 3.0
2014-Aug-24 23:28N 40°46' W 074°01'2 0.3
2014-Aug-24 17:33N 40°44' W 074°01'1 0.6
2014-Aug-24 16:33N 40°43' W 074°01'1 0.0
2014-Aug-24 02:32N 40°44' W 074°01'2 2.1
2014-Aug-24 01:33N 40°42' W 074°00'3 3.4
2014-Aug-24 00:33N 40°45' W 074°01'  

Dump ship's entire track history